sensor_id;sensor_type;location;lat;lon;timestamp;temperature;humidity
16867;DHT22;8550;52.596;13.320;2023-06-26T00:03:45;18.90;99.90
16867;DHT22;8550;52.596;13.320;2023-06-26T00:08:48;18.90;99.90
16867;DHT22;8550;52.596;13.320;2023-06-26T00:13:50;18.80;99.90
16867;DHT22;8550;52.596;13.320;2023-06-26T00:18:52;18.80;99.90
16867;DHT22;8550;52.596;13.320;2023-06-26T00:23:56;18.80;99.90
16867;DHT22;8550;52.596;13.320;2023-06-26T00:28:58;18.80;99.90
16867;DHT22;8550;52.596;13.320;2023-06-26T00:33:59;18.70;99.90
16867;DHT22;8550;52.596;13.320;2023-06-26T00:39:03;18.60;99.90
16867;DHT22;8550;52.596;13.320;2023-06-26T00:44:06;18.70;99.90
16867;DHT22;8550;52.596;13.320;2023-06-26T00:49:07;18.70;99.90
16867;DHT22;8550;52.596;13.320;2023-06-26T00:54:11;18.80;99.90
16867;DHT22;8550;52.596;13.320;2023-06-26T00:59:15;18.90;99.90
16867;DHT22;8550;52.596;13.320;2023-06-26T01:04:17;18.90;99.90
16867;DHT22;8550;52.596;13.320;2023-06-26T01:09:21;18.90;99.90
16867;DHT22;8550;52.596;13.320;2023-06-26T01:14:24;18.90;99.90
16867;DHT22;8550;52.596;13.320;2023-06-26T01:19:29;19.00;99.90
16867;DHT22;8550;52.596;13.320;2023-06-26T01:24:35;19.00;99.90
16867;DHT22;8550;52.596;13.320;2023-06-26T01:29:40;19.00;99.90
16867;DHT22;8550;52.596;13.320;2023-06-26T01:34:43;19.00;99.90
16867;DHT22;8550;52.596;13.320;2023-06-26T01:39:46;19.10;99.90
16867;DHT22;8550;52.596;13.320;2023-06-26T01:44:50;19.10;99.90
16867;DHT22;8550;52.596;13.320;2023-06-26T01:49:58;19.20;99.90
16867;DHT22;8550;52.596;13.320;2023-06-26T01:55:08;19.20;99.90
16867;DHT22;8550;52.596;13.320;2023-06-26T02:00:14;19.20;99.90
16867;DHT22;8550;52.596;13.320;2023-06-26T02:05:20;19.30;99.90
16867;DHT22;8550;52.596;13.320;2023-06-26T02:10:24;19.30;99.90
16867;DHT22;8550;52.596;13.320;2023-06-26T02:15:29;19.30;99.90
16867;DHT22;8550;52.596;13.320;2023-06-26T02:20:32;19.50;99.90
16867;DHT22;8550;52.596;13.320;2023-06-26T02:25:35;19.20;99.90
16867;DHT22;8550;52.596;13.320;2023-06-26T02:30:39;19.20;99.90
16867;DHT22;8550;52.596;13.320;2023-06-26T02:35:42;19.20;99.90
16867;DHT22;8550;52.596;13.320;2023-06-26T02:40:44;19.20;99.90
16867;DHT22;8550;52.596;13.320;2023-06-26T02:45:48;19.10;99.90
16867;DHT22;8550;52.596;13.320;2023-06-26T02:50:50;19.00;99.90
16867;DHT22;8550;52.596;13.320;2023-06-26T02:55:51;19.00;99.90
16867;DHT22;8550;52.596;13.320;2023-06-26T03:00:56;18.90;99.90
16867;DHT22;8550;52.596;13.320;2023-06-26T03:05:58;18.90;99.90
16867;DHT22;8550;52.596;13.320;2023-06-26T03:11:01;18.80;99.90
16867;DHT22;8550;52.596;13.320;2023-06-26T03:16:05;18.70;99.90
16867;DHT22;8550;52.596;13.320;2023-06-26T03:21:08;18.60;99.90
16867;DHT22;8550;52.596;13.320;2023-06-26T03:26:18;18.60;99.90
16867;DHT22;8550;52.596;13.320;2023-06-26T03:31:27;18.60;99.90
16867;DHT22;8550;52.596;13.320;2023-06-26T03:36:31;18.70;99.90
16867;DHT22;8550;52.596;13.320;2023-06-26T03:41:33;18.70;99.90
16867;DHT22;8550;52.596;13.320;2023-06-26T03:46:36;18.70;99.90
16867;DHT22;8550;52.596;13.320;2023-06-26T03:51:41;18.80;99.90
16867;DHT22;8550;52.596;13.320;2023-06-26T03:56:43;18.80;99.90
16867;DHT22;8550;52.596;13.320;2023-06-26T04:01:48;18.80;99.90
16867;DHT22;8550;52.596;13.320;2023-06-26T04:06:56;18.90;99.90
16867;DHT22;8550;52.596;13.320;2023-06-26T04:11:59;19.10;99.90
16867;DHT22;8550;52.596;13.320;2023-06-26T04:17:03;19.40;99.90
16867;DHT22;8550;52.596;13.320;2023-06-26T04:22:05;19.70;99.90
16867;DHT22;8550;52.596;13.320;2023-06-26T04:27:07;20.00;99.90
16867;DHT22;8550;52.596;13.320;2023-06-26T04:32:10;20.30;99.90
16867;DHT22;8550;52.596;13.320;2023-06-26T04:37:12;20.60;99.90
16867;DHT22;8550;52.596;13.320;2023-06-26T04:42:16;20.80;99.90
16867;DHT22;8550;52.596;13.320;2023-06-26T04:47:21;21.00;99.90
16867;DHT22;8550;52.596;13.320;2023-06-26T04:52:23;21.30;99.90
16867;DHT22;8550;52.596;13.320;2023-06-26T04:57:24;21.60;99.90
16867;DHT22;8550;52.596;13.320;2023-06-26T05:02:28;21.80;99.90
16867;DHT22;8550;52.596;13.320;2023-06-26T05:07:30;22.30;99.90
16867;DHT22;8550;52.596;13.320;2023-06-26T05:12:32;22.80;99.90
16867;DHT22;8550;52.596;13.320;2023-06-26T05:17:35;23.20;99.90
16867;DHT22;8550;52.596;13.320;2023-06-26T05:22:37;23.40;99.90
16867;DHT22;8550;52.596;13.320;2023-06-26T05:27:41;23.30;99.90
16867;DHT22;8550;52.596;13.320;2023-06-26T05:32:47;23.20;99.90
16867;DHT22;8550;52.596;13.320;2023-06-26T05:37:50;23.10;99.90
16867;DHT22;8550;52.596;13.320;2023-06-26T05:42:52;22.90;99.90
16867;DHT22;8550;52.596;13.320;2023-06-26T05:47:56;22.80;99.90
16867;DHT22;8550;52.596;13.320;2023-06-26T05:52:58;22.80;99.90
16867;DHT22;8550;52.596;13.320;2023-06-26T05:58:02;23.10;99.90
16867;DHT22;8550;52.596;13.320;2023-06-26T06:03:05;23.30;99.90
16867;DHT22;8550;52.596;13.320;2023-06-26T06:08:07;23.60;99.90
16867;DHT22;8550;52.596;13.320;2023-06-26T06:13:09;23.60;99.90
16867;DHT22;8550;52.596;13.320;2023-06-26T06:18:13;23.80;99.90
16867;DHT22;8550;52.596;13.320;2023-06-26T06:23:15;24.00;99.90
16867;DHT22;8550;52.596;13.320;2023-06-26T06:28:17;24.10;99.90
16867;DHT22;8550;52.596;13.320;2023-06-26T06:33:20;24.10;99.90
16867;DHT22;8550;52.596;13.320;2023-06-26T06:38:22;24.40;99.90
16867;DHT22;8550;52.596;13.320;2023-06-26T06:43:24;24.60;99.90
16867;DHT22;8550;52.596;13.320;2023-06-26T06:48:28;24.70;99.90
16867;DHT22;8550;52.596;13.320;2023-06-26T06:53:31;24.80;99.90
16867;DHT22;8550;52.596;13.320;2023-06-26T06:58:33;24.90;99.90
16867;DHT22;8550;52.596;13.320;2023-06-26T07:03:37;25.10;99.90
16867;DHT22;8550;52.596;13.320;2023-06-26T07:08:39;25.40;99.90
16867;DHT22;8550;52.596;13.320;2023-06-26T07:13:41;25.40;99.90
16867;DHT22;8550;52.596;13.320;2023-06-26T07:18:44;25.50;99.90
16867;DHT22;8550;52.596;13.320;2023-06-26T07:23:46;25.60;99.40
16867;DHT22;8550;52.596;13.320;2023-06-26T07:28:48;25.70;99.70
16867;DHT22;8550;52.596;13.320;2023-06-26T07:33:52;25.90;98.20
16867;DHT22;8550;52.596;13.320;2023-06-26T07:38:53;26.00;98.60
16867;DHT22;8550;52.596;13.320;2023-06-26T07:43:56;26.20;98.10
16867;DHT22;8550;52.596;13.320;2023-06-26T07:48:59;26.50;97.60
16867;DHT22;8550;52.596;13.320;2023-06-26T07:54:01;26.60;96.70
16867;DHT22;8550;52.596;13.320;2023-06-26T07:59:03;26.80;94.50
16867;DHT22;8550;52.596;13.320;2023-06-26T08:04:07;26.80;94.20
16867;DHT22;8550;52.596;13.320;2023-06-26T08:09:11;26.90;94.40
16867;DHT22;8550;52.596;13.320;2023-06-26T08:14:13;27.00;94.60
16867;DHT22;8550;52.596;13.320;2023-06-26T08:19:17;27.00;93.00
16867;DHT22;8550;52.596;13.320;2023-06-26T08:24:19;27.20;91.90
16867;DHT22;8550;52.596;13.320;2023-06-26T08:29:21;27.40;91.60
16867;DHT22;8550;52.596;13.320;2023-06-26T08:34:24;27.50;91.00
16867;DHT22;8550;52.596;13.320;2023-06-26T08:39:26;27.60;91.90
16867;DHT22;8550;52.596;13.320;2023-06-26T08:44:30;27.80;90.00
16867;DHT22;8550;52.596;13.320;2023-06-26T08:49:43;27.90;83.60
16867;DHT22;8550;52.596;13.320;2023-06-26T08:54:54;28.00;88.40
16867;DHT22;8550;52.596;13.320;2023-06-26T08:59:57;28.00;85.80
16867;DHT22;8550;52.596;13.320;2023-06-26T09:05:01;28.20;84.10
16867;DHT22;8550;52.596;13.320;2023-06-26T09:10:04;28.20;83.40
16867;DHT22;8550;52.596;13.320;2023-06-26T09:15:07;28.20;78.40
16867;DHT22;8550;52.596;13.320;2023-06-26T09:20:10;28.60;83.90
16867;DHT22;8550;52.596;13.320;2023-06-26T09:25:14;28.80;80.20
16867;DHT22;8550;52.596;13.320;2023-06-26T09:30:18;29.00;79.40
16867;DHT22;8550;52.596;13.320;2023-06-26T09:35:22;29.30;79.40
16867;DHT22;8550;52.596;13.320;2023-06-26T09:40:24;29.40;76.10
16867;DHT22;8550;52.596;13.320;2023-06-26T09:45:26;29.30;74.60
16867;DHT22;8550;52.596;13.320;2023-06-26T09:50:32;29.50;74.70
16867;DHT22;8550;52.596;13.320;2023-06-26T09:55:35;29.60;73.60
16867;DHT22;8550;52.596;13.320;2023-06-26T10:00:38;29.60;75.00
16867;DHT22;8550;52.596;13.320;2023-06-26T10:05:41;29.60;71.60
16867;DHT22;8550;52.596;13.320;2023-06-26T10:10:46;29.70;69.70
16867;DHT22;8550;52.596;13.320;2023-06-26T10:15:50;30.10;70.60
16867;DHT22;8550;52.596;13.320;2023-06-26T10:20:55;30.30;70.90
16867;DHT22;8550;52.596;13.320;2023-06-26T10:25:59;30.50;69.10
16867;DHT22;8550;52.596;13.320;2023-06-26T10:31:03;30.50;70.90
16867;DHT22;8550;52.596;13.320;2023-06-26T10:36:18;30.70;70.00
16867;DHT22;8550;52.596;13.320;2023-06-26T10:41:23;30.90;68.50
16867;DHT22;8550;52.596;13.320;2023-06-26T10:46:25;31.00;67.90
16867;DHT22;8550;52.596;13.320;2023-06-26T10:51:31;31.30;66.30
16867;DHT22;8550;52.596;13.320;2023-06-26T10:56:43;31.50;64.60
16867;DHT22;8550;52.596;13.320;2023-06-26T11:01:46;31.60;64.80
16867;DHT22;8550;52.596;13.320;2023-06-26T11:07:14;31.70;68.40
16867;DHT22;8550;52.596;13.320;2023-06-26T11:12:34;31.80;64.50
16867;DHT22;8550;52.596;13.320;2023-06-26T11:17:37;33.00;59.90
16867;DHT22;8550;52.596;13.320;2023-06-26T11:22:42;35.40;55.10
16867;DHT22;8550;52.596;13.320;2023-06-26T11:27:44;37.40;51.20
16867;DHT22;8550;52.596;13.320;2023-06-26T11:32:46;38.90;48.20
16867;DHT22;8550;52.596;13.320;2023-06-26T11:37:49;39.70;46.20
16867;DHT22;8550;52.596;13.320;2023-06-26T11:42:52;40.50;41.40
16867;DHT22;8550;52.596;13.320;2023-06-26T11:47:54;40.30;41.10
16867;DHT22;8550;52.596;13.320;2023-06-26T11:52:59;39.40;40.80
16867;DHT22;8550;52.596;13.320;2023-06-26T11:58:02;39.40;44.00
16867;DHT22;8550;52.596;13.320;2023-06-26T12:03:04;40.60;40.60
16867;DHT22;8550;52.596;13.320;2023-06-26T12:08:08;41.30;38.80
16867;DHT22;8550;52.596;13.320;2023-06-26T12:13:10;40.10;40.30
16867;DHT22;8550;52.596;13.320;2023-06-26T12:18:12;37.80;43.30
16867;DHT22;8550;52.596;13.320;2023-06-26T12:23:15;39.60;42.10
16867;DHT22;8550;52.596;13.320;2023-06-26T12:28:17;41.60;38.30
16867;DHT22;8550;52.596;13.320;2023-06-26T12:33:19;41.40;37.10
16867;DHT22;8550;52.596;13.320;2023-06-26T12:38:22;41.50;37.60
16867;DHT22;8550;52.596;13.320;2023-06-26T12:43:26;41.20;39.00
16867;DHT22;8550;52.596;13.320;2023-06-26T12:48:38;41.30;36.80
16867;DHT22;8550;52.596;13.320;2023-06-26T12:53:45;41.70;38.60
16867;DHT22;8550;52.596;13.320;2023-06-26T12:58:47;41.90;37.60
16867;DHT22;8550;52.596;13.320;2023-06-26T13:03:49;39.40;39.80
16867;DHT22;8550;52.596;13.320;2023-06-26T13:08:54;36.40;44.40
16867;DHT22;8550;52.596;13.320;2023-06-26T13:13:56;33.60;47.60
16867;DHT22;8550;52.596;13.320;2023-06-26T13:18:59;32.30;49.90
16867;DHT22;8550;52.596;13.320;2023-06-26T13:24:02;31.60;51.60
16867;DHT22;8550;52.596;13.320;2023-06-26T13:29:05;31.20;53.90
16867;DHT22;8550;52.596;13.320;2023-06-26T13:34:07;30.60;54.40
16867;DHT22;8550;52.596;13.320;2023-06-26T13:39:10;30.10;56.00
16867;DHT22;8550;52.596;13.320;2023-06-26T13:44:14;30.00;57.40
16867;DHT22;8550;52.596;13.320;2023-06-26T13:49:16;29.90;58.20
16867;DHT22;8550;52.596;13.320;2023-06-26T13:54:21;29.90;58.40
16867;DHT22;8550;52.596;13.320;2023-06-26T13:59:22;29.80;58.40
16867;DHT22;8550;52.596;13.320;2023-06-26T14:04:26;29.50;59.30
16867;DHT22;8550;52.596;13.320;2023-06-26T14:09:29;29.20;62.90
16867;DHT22;8550;52.596;13.320;2023-06-26T14:14:31;28.90;66.20
16867;DHT22;8550;52.596;13.320;2023-06-26T14:19:33;27.00;89.60
16867;DHT22;8550;52.596;13.320;2023-06-26T14:24:36;24.60;99.90
16867;DHT22;8550;52.596;13.320;2023-06-26T14:29:38;22.90;99.90
16867;DHT22;8550;52.596;13.320;2023-06-26T14:34:40;22.00;99.90
16867;DHT22;8550;52.596;13.320;2023-06-26T14:39:43;21.80;99.90
16867;DHT22;8550;52.596;13.320;2023-06-26T14:44:45;21.50;99.90
16867;DHT22;8550;52.596;13.320;2023-06-26T14:49:50;21.50;99.90
16867;DHT22;8550;52.596;13.320;2023-06-26T14:54:53;21.40;99.90
16867;DHT22;8550;52.596;13.320;2023-06-26T14:59:56;21.50;99.90
16867;DHT22;8550;52.596;13.320;2023-06-26T15:04:57;21.60;99.90
16867;DHT22;8550;52.596;13.320;2023-06-26T15:10:01;20.70;99.90
16867;DHT22;8550;52.596;13.320;2023-06-26T15:15:03;20.20;99.90
16867;DHT22;8550;52.596;13.320;2023-06-26T15:20:07;19.90;99.90
16867;DHT22;8550;52.596;13.320;2023-06-26T15:25:10;19.70;99.90
16867;DHT22;8550;52.596;13.320;2023-06-26T15:30:12;19.60;99.90
16867;DHT22;8550;52.596;13.320;2023-06-26T15:35:15;19.90;99.90
16867;DHT22;8550;52.596;13.320;2023-06-26T15:40:18;20.20;99.90
16867;DHT22;8550;52.596;13.320;2023-06-26T15:45:20;20.30;99.90
16867;DHT22;8550;52.596;13.320;2023-06-26T15:50:24;20.50;99.90
16867;DHT22;8550;52.596;13.320;2023-06-26T15:55:29;20.60;99.90
16867;DHT22;8550;52.596;13.320;2023-06-26T16:00:31;20.60;99.90
16867;DHT22;8550;52.596;13.320;2023-06-26T16:05:33;20.90;99.90
16867;DHT22;8550;52.596;13.320;2023-06-26T16:10:36;21.00;99.90
16867;DHT22;8550;52.596;13.320;2023-06-26T16:15:38;21.20;99.90
16867;DHT22;8550;52.596;13.320;2023-06-26T16:20:40;21.80;99.90
16867;DHT22;8550;52.596;13.320;2023-06-26T16:25:43;22.20;99.90
16867;DHT22;8550;52.596;13.320;2023-06-26T16:30:46;22.20;99.90
16867;DHT22;8550;52.596;13.320;2023-06-26T16:35:48;21.90;99.90
16867;DHT22;8550;52.596;13.320;2023-06-26T16:40:51;22.00;99.90
16867;DHT22;8550;52.596;13.320;2023-06-26T16:45:53;21.90;99.90
16867;DHT22;8550;52.596;13.320;2023-06-26T16:50:55;21.80;99.90
16867;DHT22;8550;52.596;13.320;2023-06-26T16:55:58;21.60;99.90
16867;DHT22;8550;52.596;13.320;2023-06-26T17:01:00;21.50;99.90
16867;DHT22;8550;52.596;13.320;2023-06-26T17:06:02;21.60;99.90
16867;DHT22;8550;52.596;13.320;2023-06-26T17:11:09;21.70;99.90
16867;DHT22;8550;52.596;13.320;2023-06-26T17:16:11;22.40;99.90
16867;DHT22;8550;52.596;13.320;2023-06-26T17:21:14;23.40;99.90
16867;DHT22;8550;52.596;13.320;2023-06-26T17:26:17;23.90;99.90
16867;DHT22;8550;52.596;13.320;2023-06-26T17:31:19;24.00;99.90
16867;DHT22;8550;52.596;13.320;2023-06-26T17:36:21;24.00;99.90
16867;DHT22;8550;52.596;13.320;2023-06-26T17:41:25;24.40;99.90
16867;DHT22;8550;52.596;13.320;2023-06-26T17:46:26;23.60;99.90
16867;DHT22;8550;52.596;13.320;2023-06-26T17:51:28;23.50;99.90
16867;DHT22;8550;52.596;13.320;2023-06-26T17:56:31;23.10;99.90
16867;DHT22;8550;52.596;13.320;2023-06-26T18:01:35;22.10;99.90
16867;DHT22;8550;52.596;13.320;2023-06-26T18:06:37;21.70;99.90
16867;DHT22;8550;52.596;13.320;2023-06-26T18:11:41;21.50;99.90
16867;DHT22;8550;52.596;13.320;2023-06-26T18:16:43;21.30;99.90
16867;DHT22;8550;52.596;13.320;2023-06-26T18:21:44;21.40;99.90
16867;DHT22;8550;52.596;13.320;2023-06-26T18:26:48;21.50;99.90
16867;DHT22;8550;52.596;13.320;2023-06-26T18:31:50;21.40;99.90
16867;DHT22;8550;52.596;13.320;2023-06-26T18:36:52;21.20;99.90
16867;DHT22;8550;52.596;13.320;2023-06-26T18:41:58;21.00;99.90
16867;DHT22;8550;52.596;13.320;2023-06-26T18:47:00;20.80;99.90
16867;DHT22;8550;52.596;13.320;2023-06-26T18:52:02;20.80;99.90
16867;DHT22;8550;52.596;13.320;2023-06-26T18:57:05;20.80;99.90
16867;DHT22;8550;52.596;13.320;2023-06-26T19:02:07;20.70;99.90
16867;DHT22;8550;52.596;13.320;2023-06-26T19:07:09;20.60;99.90
16867;DHT22;8550;52.596;13.320;2023-06-26T19:12:13;20.50;99.90
16867;DHT22;8550;52.596;13.320;2023-06-26T19:17:15;20.30;99.90
16867;DHT22;8550;52.596;13.320;2023-06-26T19:22:18;20.20;99.90
16867;DHT22;8550;52.596;13.320;2023-06-26T19:27:21;20.00;99.90
16867;DHT22;8550;52.596;13.320;2023-06-26T19:32:23;19.80;99.90
16867;DHT22;8550;52.596;13.320;2023-06-26T19:37:25;19.60;99.90
16867;DHT22;8550;52.596;13.320;2023-06-26T19:42:28;19.50;99.90
16867;DHT22;8550;52.596;13.320;2023-06-26T19:47:30;19.30;99.90
16867;DHT22;8550;52.596;13.320;2023-06-26T19:52:32;19.20;99.90
16867;DHT22;8550;52.596;13.320;2023-06-26T19:57:35;19.00;99.90
16867;DHT22;8550;52.596;13.320;2023-06-26T20:02:37;19.00;99.90
16867;DHT22;8550;52.596;13.320;2023-06-26T20:07:39;19.00;99.90
16867;DHT22;8550;52.596;13.320;2023-06-26T20:12:43;18.90;99.90
16867;DHT22;8550;52.596;13.320;2023-06-26T20:17:45;18.80;99.90
16867;DHT22;8550;52.596;13.320;2023-06-26T20:22:46;18.80;99.90
16867;DHT22;8550;52.596;13.320;2023-06-26T20:27:50;18.70;99.90
16867;DHT22;8550;52.596;13.320;2023-06-26T20:32:52;18.70;99.90
16867;DHT22;8550;52.596;13.320;2023-06-26T20:37:54;18.60;99.90
16867;DHT22;8550;52.596;13.320;2023-06-26T20:42:58;18.50;99.90
16867;DHT22;8550;52.596;13.320;2023-06-26T20:48:00;18.40;99.90
16867;DHT22;8550;52.596;13.320;2023-06-26T20:53:02;18.40;99.90
16867;DHT22;8550;52.596;13.320;2023-06-26T20:58:06;18.40;99.90
16867;DHT22;8550;52.596;13.320;2023-06-26T21:03:08;18.20;99.90
16867;DHT22;8550;52.596;13.320;2023-06-26T21:08:10;18.20;99.90
16867;DHT22;8550;52.596;13.320;2023-06-26T21:13:13;18.00;99.90
16867;DHT22;8550;52.596;13.320;2023-06-26T21:18:15;18.00;99.90
16867;DHT22;8550;52.596;13.320;2023-06-26T21:23:17;17.90;99.90
16867;DHT22;8550;52.596;13.320;2023-06-26T21:28:20;17.90;99.90
16867;DHT22;8550;52.596;13.320;2023-06-26T21:33:22;17.90;99.90
16867;DHT22;8550;52.596;13.320;2023-06-26T21:38:25;18.00;99.90
16867;DHT22;8550;52.596;13.320;2023-06-26T21:43:28;17.90;99.90
16867;DHT22;8550;52.596;13.320;2023-06-26T21:48:30;17.90;99.90
16867;DHT22;8550;52.596;13.320;2023-06-26T21:53:32;17.90;99.90
16867;DHT22;8550;52.596;13.320;2023-06-26T21:58:35;18.10;99.90
16867;DHT22;8550;52.596;13.320;2023-06-26T22:03:37;18.20;99.90
16867;DHT22;8550;52.596;13.320;2023-06-26T22:08:39;18.20;99.90
16867;DHT22;8550;52.596;13.320;2023-06-26T22:13:42;18.10;99.90
16867;DHT22;8550;52.596;13.320;2023-06-26T22:18:44;18.20;99.90
16867;DHT22;8550;52.596;13.320;2023-06-26T22:23:46;18.20;99.90
16867;DHT22;8550;52.596;13.320;2023-06-26T22:28:50;18.00;99.90
16867;DHT22;8550;52.596;13.320;2023-06-26T22:33:52;18.00;99.90
16867;DHT22;8550;52.596;13.320;2023-06-26T22:38:54;17.90;99.90
16867;DHT22;8550;52.596;13.320;2023-06-26T22:43:57;17.90;99.90
16867;DHT22;8550;52.596;13.320;2023-06-26T22:48:59;17.90;99.90
16867;DHT22;8550;52.596;13.320;2023-06-26T22:54:01;17.80;99.90
16867;DHT22;8550;52.596;13.320;2023-06-26T22:59:04;17.70;99.90
16867;DHT22;8550;52.596;13.320;2023-06-26T23:04:06;17.60;99.90
16867;DHT22;8550;52.596;13.320;2023-06-26T23:09:11;17.50;99.90
16867;DHT22;8550;52.596;13.320;2023-06-26T23:14:14;17.40;99.90
16867;DHT22;8550;52.596;13.320;2023-06-26T23:19:16;17.30;99.90
16867;DHT22;8550;52.596;13.320;2023-06-26T23:24:18;17.40;99.90
16867;DHT22;8550;52.596;13.320;2023-06-26T23:29:23;17.30;99.90
16867;DHT22;8550;52.596;13.320;2023-06-26T23:34:25;17.30;99.90
16867;DHT22;8550;52.596;13.320;2023-06-26T23:39:27;17.20;99.90
16867;DHT22;8550;52.596;13.320;2023-06-26T23:44:30;17.10;99.90
16867;DHT22;8550;52.596;13.320;2023-06-26T23:49:35;17.00;99.90
16867;DHT22;8550;52.596;13.320;2023-06-26T23:54:37;16.90;99.90
16867;DHT22;8550;52.596;13.320;2023-06-26T23:59:40;16.80;99.90
